createdAt,value
2023-05-25T00:00:19.370Z,101964.00
2023-05-25T00:02:46.696Z,101962.00
2023-05-25T00:05:14.407Z,101973.00
2023-05-25T00:07:41.415Z,101961.00
2023-05-25T00:10:08.816Z,101969.00
2023-05-25T00:12:36.737Z,101965.00
2023-05-25T00:15:05.399Z,101972.00
2023-05-25T00:17:32.427Z,101967.00
2023-05-25T00:20:08.026Z,101965.00
2023-05-25T00:22:38.523Z,101967.00
2023-05-25T00:25:06.456Z,101972.00
2023-05-25T00:27:33.342Z,101984.00
2023-05-25T00:30:00.489Z,101997.00
2023-05-25T00:32:27.484Z,101984.00
2023-05-25T00:34:55.106Z,101982.00
2023-05-25T00:37:21.989Z,101985.00
2023-05-25T00:39:48.847Z,101987.00
2023-05-25T00:42:15.928Z,101975.00
2023-05-25T00:44:42.897Z,101969.00
2023-05-25T00:47:11.640Z,101975.00
2023-05-25T00:49:38.574Z,101979.00
2023-05-25T00:52:05.824Z,101979.00
2023-05-25T00:54:33.668Z,101977.00
2023-05-25T00:57:06.332Z,101970.00
2023-05-25T00:59:42.922Z,101967.00
2023-05-25T01:02:12.017Z,101980.00
2023-05-25T01:04:45.462Z,101975.00
2023-05-25T01:07:17.668Z,101975.00
2023-05-25T01:09:45.364Z,101981.00
2023-05-25T01:12:14.431Z,101982.00
2023-05-25T01:14:41.516Z,101980.00
2023-05-25T01:17:11.423Z,101976.00
2023-05-25T01:19:41.088Z,101984.00
2023-05-25T01:22:38.500Z,101981.00
2023-05-25T01:25:13.760Z,101984.00
2023-05-25T01:28:03.970Z,101978.00
2023-05-25T01:30:31.695Z,101965.00
2023-05-25T01:32:59.621Z,101986.00
2023-05-25T01:35:27.381Z,101979.00
2023-05-25T01:37:54.343Z,101990.00
2023-05-25T01:40:24.483Z,101995.00
2023-05-25T01:42:51.334Z,101986.00
2023-05-25T01:45:18.325Z,101984.00
2023-05-25T01:47:55.613Z,101984.00
2023-05-25T01:50:34.519Z,101992.00
2023-05-25T01:53:13.957Z,101989.00
2023-05-25T01:55:47.991Z,101995.00
2023-05-25T01:58:16.209Z,101991.00
2023-05-25T02:00:43.565Z,101996.00
2023-05-25T02:03:10.559Z,101998.00
2023-05-25T02:05:37.854Z,101997.00
2023-05-25T02:08:04.993Z,102001.00
2023-05-25T02:10:31.866Z,102008.00
2023-05-25T02:12:58.753Z,102007.00
2023-05-25T02:15:25.800Z,102000.00
2023-05-25T02:17:52.662Z,102012.00
2023-05-25T02:20:19.570Z,102003.00
2023-05-25T02:22:46.518Z,102003.00
2023-05-25T02:25:13.424Z,102007.00
2023-05-25T02:27:40.422Z,102002.00
2023-05-25T02:30:07.910Z,102003.00
2023-05-25T02:32:35.299Z,102002.00
2023-05-25T02:35:02.243Z,102005.00
2023-05-25T02:37:29.129Z,102004.00
2023-05-25T02:39:55.967Z,101993.00
2023-05-25T02:42:22.811Z,101998.00
2023-05-25T02:44:49.654Z,101999.00
2023-05-25T02:47:17.925Z,102007.00
2023-05-25T02:49:45.810Z,102011.00
2023-05-25T02:52:12.763Z,102003.00
2023-05-25T02:54:39.788Z,102012.00
2023-05-25T02:57:06.614Z,102012.00
2023-05-25T02:59:33.499Z,102009.00
2023-05-25T03:02:00.386Z,102011.00
2023-05-25T03:04:27.258Z,102013.00
2023-05-25T03:06:54.110Z,102022.00
2023-05-25T03:09:20.913Z,102013.00
2023-05-25T03:11:47.740Z,102008.00
2023-05-25T03:14:14.710Z,102019.00
2023-05-25T03:16:41.566Z,102020.00
2023-05-25T03:19:10.547Z,102028.00
2023-05-25T03:21:38.103Z,102018.00
2023-05-25T03:24:05.266Z,102016.00
2023-05-25T03:26:32.810Z,102028.00
2023-05-25T03:28:59.716Z,102022.00
2023-05-25T03:31:26.877Z,102034.00
2023-05-25T03:33:53.756Z,102025.00
2023-05-25T03:36:22.169Z,102029.00
2023-05-25T03:38:49.265Z,102033.00
2023-05-25T03:41:16.105Z,102048.00
2023-05-25T03:43:42.904Z,102043.00
2023-05-25T03:46:11.663Z,102043.00
2023-05-25T03:48:38.633Z,102051.00
2023-05-25T03:51:06.323Z,102050.00
2023-05-25T03:53:33.182Z,102049.00
2023-05-25T03:56:00.336Z,102046.00
2023-05-25T03:58:27.176Z,102048.00
2023-05-25T04:00:55.045Z,102043.00
2023-05-25T04:03:22.268Z,102052.00
2023-05-25T04:05:50.062Z,102037.00
2023-05-25T04:08:19.697Z,102050.00
2023-05-25T04:10:46.916Z,102044.00
2023-05-25T04:13:13.956Z,102050.00
2023-05-25T04:15:40.804Z,102046.00
2023-05-25T04:18:07.694Z,102041.00
2023-05-25T04:20:34.498Z,102056.00
2023-05-25T04:23:01.387Z,102060.00
2023-05-25T04:25:29.725Z,102056.00
2023-05-25T04:27:56.775Z,102059.00
2023-05-25T04:30:24.000Z,102056.00
2023-05-25T04:32:51.107Z,102062.00
2023-05-25T04:35:20.876Z,102054.00
2023-05-25T04:37:48.417Z,102054.00
2023-05-25T04:40:15.308Z,102054.00
2023-05-25T04:42:42.161Z,102058.00
2023-05-25T04:45:10.530Z,102056.00
2023-05-25T04:47:41.071Z,102072.00
2023-05-25T04:50:10.041Z,102066.00
2023-05-25T04:52:36.976Z,102067.00
2023-05-25T04:55:03.952Z,102077.00
2023-05-25T04:57:31.660Z,102076.00
2023-05-25T04:59:58.818Z,102080.00
2023-05-25T05:02:26.065Z,102079.00
2023-05-25T05:04:53.879Z,102071.00
2023-05-25T05:07:21.882Z,102086.00
2023-05-25T05:09:49.489Z,102081.00
2023-05-25T05:12:16.347Z,102087.00
2023-05-25T05:14:43.218Z,102096.00
2023-05-25T05:17:10.064Z,102094.00
2023-05-25T05:19:37.092Z,102104.00
2023-05-25T05:22:04.022Z,102110.00
2023-05-25T05:24:30.807Z,102106.00
2023-05-25T05:26:59.161Z,102105.00
2023-05-25T05:29:28.183Z,102110.00
2023-05-25T05:31:55.670Z,102114.00
2023-05-25T05:34:22.601Z,102105.00
2023-05-25T05:36:57.549Z,102128.00
2023-05-25T05:39:25.443Z,102119.00
2023-05-25T05:41:52.230Z,102135.00
2023-05-25T05:44:21.287Z,102136.00
2023-05-25T05:46:48.259Z,102135.00
2023-05-25T05:49:15.466Z,102142.00
2023-05-25T05:51:42.345Z,102140.00
2023-05-25T05:54:09.237Z,102132.00
2023-05-25T05:56:36.265Z,102132.00
2023-05-25T05:59:03.049Z,102157.00
2023-05-25T06:01:29.817Z,102133.00
2023-05-25T06:03:56.687Z,102158.00
2023-05-25T06:06:23.552Z,102156.00
2023-05-25T06:08:51.124Z,102164.00
2023-05-25T06:11:18.011Z,102154.00
2023-05-25T06:13:46.452Z,102160.00
2023-05-25T06:16:13.696Z,102167.00
2023-05-25T06:18:40.736Z,102169.00
2023-05-25T06:21:07.632Z,102166.00
2023-05-25T06:23:34.498Z,102180.00
2023-05-25T06:26:05.691Z,102188.00
2023-05-25T06:28:32.669Z,102182.00
2023-05-25T06:30:59.532Z,102186.00
2023-05-25T06:33:26.440Z,102186.00
2023-05-25T06:35:58.255Z,102181.00
2023-05-25T06:38:25.218Z,102167.00
2023-05-25T06:40:52.064Z,102168.00
2023-05-25T06:43:18.933Z,102189.00
2023-05-25T06:45:46.120Z,102187.00
2023-05-25T06:48:13.246Z,102170.00
2023-05-25T06:50:40.264Z,102194.00
2023-05-25T06:53:07.146Z,102194.00
2023-05-25T06:55:33.926Z,102176.00
2023-05-25T06:58:00.832Z,102203.00
2023-05-25T07:00:27.712Z,102214.00
2023-05-25T07:02:54.605Z,102212.00
2023-05-25T07:05:21.967Z,102210.00
2023-05-25T07:07:48.914Z,102212.00
2023-05-25T07:10:15.807Z,102223.00
2023-05-25T07:12:42.625Z,102205.00
2023-05-25T07:15:10.479Z,102198.00
2023-05-25T07:17:37.401Z,102198.00
2023-05-25T07:20:06.319Z,102207.00
2023-05-25T07:22:33.309Z,102213.00
2023-05-25T07:25:00.273Z,102227.00
2023-05-25T07:27:27.135Z,102228.00
2023-05-25T07:29:53.944Z,102221.00
2023-05-25T07:32:20.976Z,102227.00
2023-05-25T07:34:47.837Z,102232.00
2023-05-25T07:37:14.703Z,102246.00
2023-05-25T07:39:41.621Z,102254.00
2023-05-25T07:42:08.485Z,102238.00
2023-05-25T07:44:35.326Z,102218.00
2023-05-25T07:47:02.218Z,102237.00
2023-05-25T07:49:29.135Z,102247.00
2023-05-25T07:51:55.929Z,102255.00
2023-05-25T07:54:22.903Z,102249.00
2023-05-25T07:56:49.849Z,102251.00
2023-05-25T07:59:16.878Z,102271.00
2023-05-25T08:01:43.840Z,102278.00
2023-05-25T08:04:10.875Z,102262.00
2023-05-25T08:06:38.596Z,102259.00
2023-05-25T08:09:06.319Z,102274.00
2023-05-25T08:11:33.322Z,102270.00
2023-05-25T08:14:00.687Z,102288.00
2023-05-25T08:16:27.632Z,102290.00
2023-05-25T08:18:54.526Z,102289.00
2023-05-25T08:21:21.413Z,102311.00
2023-05-25T08:23:50.552Z,102294.00
2023-05-25T08:28:47.321Z,102293.00
2023-05-25T08:31:14.172Z,102281.00
2023-05-25T08:33:41.387Z,102318.00
2023-05-25T08:36:09.355Z,102317.00
2023-05-25T08:38:36.292Z,102316.00
2023-05-25T08:41:06.141Z,102295.00
2023-05-25T08:43:34.093Z,102283.00
2023-05-25T08:46:06.184Z,102298.00
2023-05-25T08:48:41.715Z,102313.00
2023-05-25T08:51:11.495Z,102333.00
2023-05-25T08:53:41.224Z,102321.00
2023-05-25T08:56:18.471Z,102317.00
2023-05-25T08:58:57.966Z,102329.00
2023-05-25T09:01:27.561Z,102344.00
2023-05-25T09:03:56.781Z,102332.00
2023-05-25T09:06:26.927Z,102332.00
2023-05-25T09:08:54.575Z,102348.00
2023-05-25T09:11:36.126Z,102335.00
2023-05-25T09:14:07.643Z,102322.00
2023-05-25T09:16:36.261Z,102337.00
2023-05-25T09:19:03.069Z,102331.00
2023-05-25T09:21:29.926Z,102336.00
2023-05-25T09:23:56.882Z,102329.00
2023-05-25T09:26:23.796Z,102323.00
2023-05-25T09:28:50.706Z,102337.00
2023-05-25T09:31:17.607Z,102334.00
2023-05-25T09:33:45.977Z,102342.00
2023-05-25T09:36:15.284Z,102338.00
2023-05-25T09:38:42.325Z,102339.00
2023-05-25T09:41:09.476Z,102327.00
2023-05-25T09:43:44.723Z,102320.00
2023-05-25T09:46:16.058Z,102326.00
2023-05-25T09:48:43.660Z,102326.00
2023-05-25T09:51:11.471Z,102352.00
2023-05-25T09:53:38.350Z,102349.00
2023-05-25T09:56:05.899Z,102358.00
2023-05-25T09:58:32.832Z,102356.00
2023-05-25T10:01:00.925Z,102339.00
2023-05-25T10:03:27.916Z,102334.00
2023-05-25T10:05:55.307Z,102346.00
2023-05-25T10:08:23.456Z,102326.00
2023-05-25T10:10:50.727Z,102351.00
2023-05-25T10:13:22.893Z,102352.00
2023-05-25T10:15:52.881Z,102372.00
2023-05-25T10:18:24.372Z,102374.00
2023-05-25T10:20:53.809Z,102372.00
2023-05-25T10:23:21.955Z,102349.00
2023-05-25T10:25:51.109Z,102346.00
2023-05-25T10:28:26.785Z,102349.00
2023-05-25T10:30:55.240Z,102370.00
2023-05-25T10:33:22.651Z,102364.00
2023-05-25T10:36:02.984Z,102341.00
2023-05-25T10:38:36.174Z,102369.00
2023-05-25T10:41:04.300Z,102360.00
2023-05-25T10:43:31.517Z,102356.00
2023-05-25T10:45:58.886Z,102318.00
2023-05-25T10:48:36.362Z,102332.00
2023-05-25T10:51:05.377Z,102336.00
2023-05-25T10:53:32.371Z,102363.00
2023-05-25T10:56:04.815Z,102376.00
2023-05-25T10:58:32.514Z,102351.00
2023-05-25T11:01:11.310Z,102352.00
2023-05-25T11:03:44.734Z,102327.00
2023-05-25T11:06:13.720Z,102345.00
2023-05-25T11:08:59.526Z,102366.00
2023-05-25T11:11:48.222Z,102350.00
2023-05-25T11:14:30.336Z,102358.00
2023-05-25T11:17:14.635Z,102348.00
2023-05-25T11:19:50.805Z,102358.00
2023-05-25T11:22:22.984Z,102350.00
2023-05-25T11:24:53.808Z,102336.00
2023-05-25T11:27:24.932Z,102333.00
2023-05-25T11:29:52.691Z,102338.00
2023-05-25T11:32:19.962Z,102298.00
2023-05-25T11:34:54.054Z,102310.00
2023-05-25T11:37:22.374Z,102304.00
2023-05-25T11:39:51.622Z,102311.00
2023-05-25T11:42:23.350Z,102319.00
2023-05-25T11:44:51.470Z,102318.00
2023-05-25T11:47:22.966Z,102289.00
2023-05-25T11:49:50.722Z,102316.00
2023-05-25T11:52:19.399Z,102315.00
2023-05-25T11:54:46.744Z,102303.00
2023-05-25T11:57:27.026Z,102282.00
2023-05-25T11:59:55.579Z,102312.00
2023-05-25T12:02:23.519Z,102309.00
2023-05-25T12:05:04.238Z,102304.00
2023-05-25T12:07:34.409Z,102309.00
2023-05-25T12:10:09.577Z,102307.00
2023-05-25T12:12:47.982Z,102291.00
2023-05-25T12:15:22.303Z,102313.00
2023-05-25T12:17:50.644Z,102290.00
2023-05-25T12:20:20.796Z,102317.00
2023-05-25T12:22:51.044Z,102318.00
2023-05-25T12:25:24.463Z,102321.00
2023-05-25T12:28:12.256Z,102293.00
2023-05-25T12:30:42.979Z,102301.00
2023-05-25T12:33:12.796Z,102318.00
2023-05-25T12:35:49.967Z,102312.00
2023-05-25T12:38:21.886Z,102289.00
2023-05-25T12:41:04.280Z,102306.00
2023-05-25T12:43:43.145Z,102311.00
2023-05-25T12:46:10.080Z,102288.00
2023-05-25T12:48:36.972Z,102282.00
2023-05-25T12:51:06.729Z,102324.00
2023-05-25T12:53:50.053Z,102299.00
2023-05-25T12:56:17.054Z,102327.00
2023-05-25T12:58:44.978Z,102307.00
2023-05-25T13:01:12.313Z,102263.00
2023-05-25T13:03:39.659Z,102283.00
2023-05-25T13:06:07.018Z,102290.00
2023-05-25T13:08:34.853Z,102311.00
2023-05-25T13:11:03.656Z,102298.00
2023-05-25T13:13:34.856Z,102278.00
2023-05-25T13:16:01.803Z,102304.00
2023-05-25T13:18:28.723Z,102302.00
2023-05-25T13:20:59.574Z,102314.00
2023-05-25T13:23:26.944Z,102341.00
2023-05-25T13:25:54.399Z,102318.00
2023-05-25T13:28:21.264Z,102310.00
2023-05-25T13:30:48.064Z,102293.00
2023-05-25T13:33:15.065Z,102305.00
2023-05-25T13:35:46.394Z,102292.00
2023-05-25T13:38:15.741Z,102290.00
2023-05-25T13:40:48.016Z,102306.00
2023-05-25T13:43:14.914Z,102288.00
2023-05-25T13:45:41.957Z,102295.00
2023-05-25T13:48:09.044Z,102278.00
2023-05-25T13:50:36.202Z,102291.00
2023-05-25T13:53:03.077Z,102290.00
2023-05-25T13:55:29.906Z,102292.00
2023-05-25T13:57:57.207Z,102323.00
2023-05-25T14:00:24.148Z,102298.00
2023-05-25T14:02:51.334Z,102296.00
2023-05-25T14:05:19.794Z,102293.00
2023-05-25T14:07:47.564Z,102307.00
2023-05-25T14:10:14.765Z,102288.00
2023-05-25T14:12:42.226Z,102309.00
2023-05-25T14:15:09.399Z,102306.00
2023-05-25T14:17:36.396Z,102293.00
2023-05-25T14:20:06.417Z,102290.00
2023-05-25T14:22:33.446Z,102300.00
2023-05-25T14:25:00.318Z,102289.00
2023-05-25T14:27:27.103Z,102302.00
2023-05-25T14:29:53.961Z,102301.00
2023-05-25T14:32:20.788Z,102305.00
2023-05-25T14:34:47.665Z,102292.00
2023-05-25T14:37:14.542Z,102292.00
2023-05-25T14:39:41.378Z,102287.00
2023-05-25T14:42:08.203Z,102294.00
2023-05-25T14:44:35.068Z,102303.00
2023-05-25T14:47:01.883Z,102297.00
2023-05-25T14:49:29.316Z,102301.00
2023-05-25T14:51:56.174Z,102315.00
2023-05-25T14:54:23.054Z,102288.00
2023-05-25T14:56:49.895Z,102282.00
2023-05-25T14:59:16.825Z,102297.00
2023-05-25T15:01:43.723Z,102299.00
2023-05-25T15:04:10.857Z,102302.00
2023-05-25T15:06:39.338Z,102279.00
2023-05-25T15:09:06.858Z,102285.00
2023-05-25T15:11:33.642Z,102310.00
2023-05-25T15:14:00.668Z,102301.00
2023-05-25T15:16:27.644Z,102291.00
2023-05-25T15:18:54.538Z,102299.00
2023-05-25T15:21:21.454Z,102303.00
2023-05-25T15:23:48.258Z,102289.00
2023-05-25T15:26:15.164Z,102291.00
2023-05-25T15:28:41.957Z,102272.00
2023-05-25T15:31:08.808Z,102268.00
2023-05-25T15:33:50.192Z,102267.00
2023-05-25T15:36:23.364Z,102294.00
2023-05-25T15:38:50.259Z,102287.00
2023-05-25T15:41:17.498Z,102284.00
2023-05-25T15:43:58.010Z,102282.00
2023-05-25T15:46:25.327Z,102283.00
2023-05-25T15:48:52.219Z,102275.00
2023-05-25T15:51:19.073Z,102294.00
2023-05-25T15:53:46.925Z,102266.00
2023-05-25T15:56:15.781Z,102282.00
2023-05-25T15:58:42.640Z,102271.00
2023-05-25T16:01:11.282Z,102281.00
2023-05-25T16:03:42.169Z,102259.00
2023-05-25T16:06:10.128Z,102274.00
2023-05-25T16:08:37.177Z,102262.00
2023-05-25T16:11:04.093Z,102285.00
2023-05-25T16:13:30.911Z,102283.00
2023-05-25T16:15:57.851Z,102256.00
2023-05-25T16:18:24.791Z,102258.00
2023-05-25T16:20:55.958Z,102263.00
2023-05-25T16:23:23.470Z,102241.00
2023-05-25T16:25:50.710Z,102248.00
2023-05-25T16:28:17.642Z,102246.00
2023-05-25T16:30:44.473Z,102245.00
2023-05-25T16:33:11.382Z,102234.00
2023-05-25T16:35:38.260Z,102244.00
2023-05-25T16:38:05.068Z,102242.00
2023-05-25T16:40:33.382Z,102240.00
2023-05-25T16:43:00.383Z,102233.00
2023-05-25T16:45:27.203Z,102248.00
2023-05-25T16:47:54.065Z,102249.00
2023-05-25T16:50:20.885Z,102224.00
2023-05-25T16:52:47.731Z,102241.00
2023-05-25T16:55:16.111Z,102218.00
2023-05-25T16:57:42.983Z,102232.00
2023-05-25T17:00:10.431Z,102241.00
2023-05-25T17:02:37.487Z,102224.00
2023-05-25T17:05:06.556Z,102222.00
2023-05-25T17:07:33.950Z,102231.00
2023-05-25T17:10:00.956Z,102231.00
2023-05-25T17:12:27.812Z,102233.00
2023-05-25T17:14:54.648Z,102219.00
2023-05-25T17:17:21.484Z,102213.00
2023-05-25T17:19:48.364Z,102230.00
2023-05-25T17:22:15.239Z,102218.00
2023-05-25T17:24:42.092Z,102219.00
2023-05-25T17:27:27.088Z,102209.00
2023-05-25T17:29:53.991Z,102198.00
2023-05-25T17:32:20.891Z,102227.00
2023-05-25T17:34:47.913Z,102204.00
2023-05-25T17:37:14.792Z,102217.00
2023-05-25T17:39:42.687Z,102206.00
2023-05-25T17:42:09.600Z,102221.00
2023-05-25T17:44:40.192Z,102222.00
2023-05-25T17:47:09.163Z,102217.00
2023-05-25T17:49:37.654Z,102224.00
2023-05-25T17:52:04.808Z,102215.00
2023-05-25T17:54:31.607Z,102214.00
2023-05-25T17:56:58.483Z,102226.00
2023-05-25T17:59:25.349Z,102221.00
2023-05-25T18:01:52.230Z,102224.00
2023-05-25T18:04:19.695Z,102240.00
2023-05-25T18:06:47.490Z,102224.00
2023-05-25T18:09:14.270Z,102231.00
2023-05-25T18:11:41.100Z,102232.00
2023-05-25T18:14:07.973Z,102236.00
2023-05-25T18:16:39.520Z,102227.00
2023-05-25T18:19:07.057Z,102226.00
2023-05-25T18:21:49.100Z,102243.00
2023-05-25T18:24:15.923Z,102247.00
2023-05-25T18:26:42.799Z,102255.00
2023-05-25T18:29:09.759Z,102244.00
2023-05-25T18:31:39.431Z,102245.00
2023-05-25T18:34:07.120Z,102246.00
2023-05-25T18:36:33.968Z,102241.00
2023-05-25T18:39:00.797Z,102239.00
2023-05-25T18:41:27.625Z,102241.00
2023-05-25T18:43:55.003Z,102248.00
2023-05-25T18:46:22.301Z,102260.00
2023-05-25T18:48:49.202Z,102256.00
2023-05-25T18:51:17.113Z,102242.00
2023-05-25T18:53:44.828Z,102242.00
2023-05-25T18:56:11.941Z,102256.00
2023-05-25T18:58:38.827Z,102256.00
2023-05-25T19:01:05.653Z,102253.00
2023-05-25T19:03:32.557Z,102250.00
2023-05-25T19:05:59.566Z,102235.00
2023-05-25T19:08:26.353Z,102257.00
2023-05-25T19:10:53.158Z,102253.00
2023-05-25T19:13:22.740Z,102257.00
2023-05-25T19:15:50.539Z,102263.00
2023-05-25T19:18:17.470Z,102249.00
2023-05-25T19:20:44.438Z,102254.00
2023-05-25T19:23:11.524Z,102251.00
2023-05-25T19:25:38.349Z,102255.00
2023-05-25T19:28:05.145Z,102260.00
2023-05-25T19:30:33.177Z,102252.00
2023-05-25T19:33:00.177Z,102251.00
2023-05-25T19:35:27.017Z,102258.00
2023-05-25T19:37:54.022Z,102257.00
2023-05-25T19:40:20.875Z,102247.00
2023-05-25T19:42:47.810Z,102256.00
2023-05-25T19:45:14.861Z,102248.00
2023-05-25T19:47:41.714Z,102259.00
2023-05-25T19:50:08.816Z,102266.00
2023-05-25T19:52:37.272Z,102277.00
2023-05-25T19:55:04.217Z,102273.00
2023-05-25T19:57:31.104Z,102275.00
2023-05-25T19:59:58.017Z,102277.00
2023-05-25T20:02:24.923Z,102281.00
2023-05-25T20:04:51.833Z,102276.00
2023-05-25T20:07:18.877Z,102276.00
2023-05-25T20:09:46.229Z,102278.00
2023-05-25T20:12:14.852Z,102302.00
2023-05-25T20:14:42.848Z,102295.00
2023-05-25T20:17:10.179Z,102298.00
2023-05-25T20:19:37.187Z,102297.00
2023-05-25T20:22:06.188Z,102314.00
2023-05-25T20:24:33.209Z,102306.00
2023-05-25T20:27:00.197Z,102321.00
2023-05-25T20:29:27.474Z,102316.00
2023-05-25T20:31:54.428Z,102309.00
2023-05-25T20:34:21.358Z,102312.00
2023-05-25T20:36:48.268Z,102332.00
2023-05-25T20:39:16.020Z,102333.00
2023-05-25T20:41:42.980Z,102322.00
2023-05-25T20:44:10.116Z,102332.00
2023-05-25T20:46:37.082Z,102320.00
2023-05-25T20:49:04.009Z,102317.00
2023-05-25T20:51:31.327Z,102311.00
2023-05-25T20:53:58.204Z,102330.00
2023-05-25T20:56:28.046Z,102321.00
2023-05-25T20:58:54.922Z,102322.00
2023-05-25T21:01:21.862Z,102309.00
2023-05-25T21:03:48.964Z,102319.00
2023-05-25T21:06:16.103Z,102321.00
2023-05-25T21:08:43.053Z,102314.00
2023-05-25T21:11:09.970Z,102321.00
2023-05-25T21:13:36.949Z,102312.00
2023-05-25T21:16:03.845Z,102330.00
2023-05-25T21:18:30.691Z,102318.00
2023-05-25T21:20:57.545Z,102314.00
2023-05-25T21:23:25.323Z,102316.00
2023-05-25T21:25:52.176Z,102318.00
2023-05-25T21:28:22.548Z,102312.00
2023-05-25T21:30:49.738Z,102318.00
2023-05-25T21:33:16.590Z,102311.00
2023-05-25T21:35:43.628Z,102306.00
2023-05-25T21:38:10.798Z,102309.00
2023-05-25T21:40:37.645Z,102310.00
2023-05-25T21:43:04.597Z,102319.00
2023-05-25T21:45:31.418Z,102315.00
2023-05-25T21:47:58.323Z,102315.00
2023-05-25T21:50:25.825Z,102314.00
2023-05-25T21:52:52.675Z,102307.00
2023-05-25T21:55:19.631Z,102318.00
2023-05-25T21:57:46.488Z,102312.00
2023-05-25T22:00:14.526Z,102317.00
2023-05-25T22:02:41.555Z,102318.00
2023-05-25T22:05:08.570Z,102332.00
2023-05-25T22:07:35.518Z,102332.00
2023-05-25T22:10:02.496Z,102340.00
2023-05-25T22:12:29.317Z,102319.00
2023-05-25T22:14:56.230Z,102317.00
2023-05-25T22:17:23.074Z,102328.00
2023-05-25T22:20:03.305Z,102311.00
